Aérodrome :
LOGIN :

S'inscrire | Disclaimer

   EN    FR    IT 

 










Légende :    VFR   VFR Marginal   IFR   IFR Intensif   IFR Très Intensif
Visi : 
Plafond : 
>= 8 km
>= 3000ft
5 à 8 km
1000 à 3000 ft
1500m à 5 km
500 à 1000 ft
800 à 1500m
200 à 500 ft
< 800m
< 200 ft
Symboles :   Orages  Brouillard  Fortes neiges  Fortes précipitations  Vent > 20 kt
SIGMETs :   Divers  Orages  Givrage  Turbulence  Onde Orograph.  Cendres Volcan.







- Altitude de l'aérodrome : 194 ft
- Code IATA : LME
- Voir les cartes d'approche


LFRM - Le Mans

DERNIER METAR :
  • 221000Z AUTO VRB03KT 2600 BR BKN003 BKN012 BKN031 02/02 Q1007 BECMG 9999 NSW SCT010 BKN100

METARs EXPIRÉS :
  • 220930Z AUTO VRB03KT 2600 -DZ BR BKN004 BKN013 OVC045 02/02 Q1008 BECMG 9999 NSW SCT010 BKN100
  • 220900Z AUTO VRB02KT 2700 BR OVC005/// ///TCU 02/02 Q1008 BECMG 9999 NSW SCT010 BKN100
  • 220830Z AUTO 25005KT 170V320 2400 -RA BR BKN005/// OVC009/// ///TCU 02/02 Q1008 BECMG 9999 NSW SCT010 BKN100
  • 220800Z AUTO VRB02KT 3000 -RA BR BKN006 OVC017 02/01 Q1008 BECMG 9999 NSW SCT010 BKN100
  • 220730Z AUTO 18006KT 140V210 3200 -RA BR BKN005 OVC010 01/01 Q1008 BECMG 9999 NSW SCT010 BKN100

TAF AMD TAF LFRM
Valide du 22 à 08h jusqu'au 23 à 06h UTC


220807Z 2208/2306 18005KT 3000 -RA BKN005 BKN018 OVC035
BECMG 2210/2212 9999 NSW SCT010 BKN100
TEMPO 2218/2306 4500 -SHRA BKN010
PROB40
TEMPO 2221/2224 SHSN
Pas de NOTAMs connus pour ce terrain.



MET'MAP, la Météo Aéronautique d'un coup d'oeil ! - Copyright ORBIFLY Décembre 2007 - Disclaimer

ORBIFLY MET'MAP TEAM :

Programmation & Développement : Alexandra Zaïnal
Conception & Développement : Baudouin d'Aumeries
Co-Programmation & Développement : Marc-Olivier Méhu
Soutien technique & logistique : Manuel Goepfert

Contact : metmap@orbifly.com




SOURCES & CREDITS :

   NOAA